Time;durP1;ratioP1;P1;durP2;ratioP2;P2;SDS_P1;SDS_P2;PMS_P1;PMS_P2;Temp;Humidity;BMP_temperature;BMP_pressure;BME280_temperature;BME280_humidity;BME280_pressure;Samples;Min_cycle;Max_cycle;Signal;HPM_P1;HPM_P2
2023/05/12 00:00:58;;;;;;;1.20;1.10;;;21.70;74.50;;;;;;5075593;28;20980;-83
2023/05/12 00:03:25;;;;;;;1.27;1.17;;;21.70;74.40;;;;;;5075878;28;20484;-86
2023/05/12 00:05:53;;;;;;;1.17;1.00;;;21.70;74.50;;;;;;5075783;28;20443;-83
2023/05/12 00:08:20;;;;;;;1.27;1.10;;;21.80;74.60;;;;;;5075908;28;20529;-83
2023/05/12 00:10:46;;;;;;;1.10;0.93;;;21.70;74.40;;;;;;5075334;28;20538;-81
2023/05/12 00:13:14;;;;;;;1.20;1.10;;;21.70;74.40;;;;;;5075570;28;20541;-83
2023/05/12 00:15:41;;;;;;;1.30;1.10;;;21.70;74.50;;;;;;5075601;28;20448;-83
2023/05/12 00:18:08;;;;;;;1.20;1.00;;;21.70;74.40;;;;;;5075560;28;20525;-83
2023/05/12 00:20:35;;;;;;;1.20;1.00;;;21.70;74.50;;;;;;5075769;28;20507;-82
2023/05/12 00:23:03;;;;;;;1.30;1.10;;;21.70;74.50;;;;;;5075452;28;20437;-82
2023/05/12 00:25:30;;;;;;;1.20;1.10;;;21.70;74.40;;;;;;5075323;28;20973;-82
2023/05/12 00:27:57;;;;;;;1.30;0.90;;;21.70;74.40;;;;;;5075384;28;20447;-82
2023/05/12 00:30:23;;;;;;;1.20;0.90;;;21.70;74.40;;;;;;5075188;28;20441;-82
2023/05/12 00:32:50;;;;;;;1.30;1.10;;;21.70;74.40;;;;;;5075406;28;20461;-82
2023/05/12 00:35:17;;;;;;;1.40;1.00;;;21.70;74.50;;;;;;5075289;28;20464;-82
2023/05/12 00:37:44;;;;;;;1.20;0.90;;;21.70;74.50;;;;;;5075171;28;20480;-82
2023/05/12 00:40:13;;;;;;;1.10;1.00;;;21.70;74.40;;;;;;5075381;28;20441;-82
2023/05/12 00:42:40;;;;;;;1.20;1.10;;;21.70;74.50;;;;;;5075021;28;20436;-83
2023/05/12 00:45:08;;;;;;;1.20;1.10;;;21.70;74.50;;;;;;5075143;28;20452;-82
2023/05/12 00:47:36;;;;;;;1.20;1.00;;;21.70;75.30;;;;;;5075168;28;20451;-82
2023/05/12 00:50:04;;;;;;;1.30;1.10;;;21.70;74.50;;;;;;5074779;28;20449;-82
2023/05/12 00:52:31;;;;;;;1.67;1.30;;;21.70;74.40;;;;;;5075090;28;20444;-82
2023/05/12 00:55:00;;;;;;;1.10;1.00;;;21.70;74.40;;;;;;5074866;28;20444;-82
2023/05/12 00:57:28;;;;;;;1.20;1.03;;;21.70;74.40;;;;;;5074694;28;21017;-82
2023/05/12 00:59:55;;;;;;;1.30;1.20;;;21.70;74.50;;;;;;5074769;28;20480;-82
2023/05/12 01:02:22;;;;;;;1.40;1.13;;;21.70;74.40;;;;;;5074743;28;20462;-82
2023/05/12 01:04:50;;;;;;;1.10;0.90;;;21.70;74.50;;;;;;5074589;28;20442;-82
2023/05/12 01:07:21;;;;;;;1.10;1.00;;;21.70;74.50;;;;;;5074561;28;20449;-82
2023/05/12 01:09:48;;;;;;;1.40;1.30;;;21.70;74.50;;;;;;5074252;28;20508;-83
2023/05/12 01:12:15;;;;;;;1.10;1.00;;;21.70;74.50;;;;;;5074562;28;20445;-83
2023/05/12 01:14:43;;;;;;;1.20;1.10;;;21.70;74.60;;;;;;5074362;28;20441;-83
2023/05/12 01:17:13;;;;;;;1.10;1.00;;;21.70;74.60;;;;;;5074087;28;20437;-83
2023/05/12 01:19:43;;;;;;;1.30;1.20;;;21.70;74.50;;;;;;5074430;28;20997;-83
2023/05/12 01:22:11;;;;;;;1.33;1.23;;;21.70;74.40;;;;;;5074292;28;20435;-83
2023/05/12 01:24:46;;;;;;;1.30;1.20;;;21.70;74.50;;;;;;5074451;28;20441;-83
2023/05/12 01:27:15;;;;;;;1.17;1.07;;;21.70;74.50;;;;;;5074224;28;20438;-83
2023/05/12 01:29:42;;;;;;;1.20;1.03;;;21.70;74.50;;;;;;5074088;28;20437;-82
2023/05/12 01:32:10;;;;;;;1.10;1.00;;;21.70;74.50;;;;;;5074106;28;20464;-88
2023/05/12 01:34:36;;;;;;;1.20;1.10;;;21.60;74.40;;;;;;5074027;28;20450;-83
2023/05/12 01:37:03;;;;;;;1.30;1.20;;;21.70;74.60;;;;;;5074047;28;20503;-82
2023/05/12 01:39:30;;;;;;;1.20;1.00;;;21.70;74.50;;;;;;5073845;28;20441;-83
2023/05/12 01:41:57;;;;;;;1.30;1.20;;;21.70;74.50;;;;;;5074020;28;20495;-83
2023/05/12 01:44:25;;;;;;;1.20;1.10;;;21.70;75.40;;;;;;5073955;28;20439;-83
2023/05/12 01:46:52;;;;;;;1.23;1.10;;;21.70;74.50;;;;;;5073898;28;20442;-83
2023/05/12 01:49:19;;;;;;;1.30;1.20;;;21.70;74.60;;;;;;5073687;28;20536;-82
2023/05/12 01:51:46;;;;;;;1.23;1.13;;;21.70;74.60;;;;;;5073586;28;20482;-83
2023/05/12 01:54:12;;;;;;;1.30;1.00;;;21.70;74.50;;;;;;5073852;28;20525;-82
2023/05/12 01:56:39;;;;;;;1.30;1.20;;;21.70;74.50;;;;;;5073871;28;20761;-87
2023/05/12 01:59:06;;;;;;;1.20;1.00;;;21.70;74.50;;;;;;5073368;28;20477;-82
2023/05/12 02:01:35;;;;;;;1.50;1.10;;;21.70;74.60;;;;;;5073452;28;20527;-82
2023/05/12 02:04:03;;;;;;;1.10;0.90;;;21.70;74.60;;;;;;5073465;28;20442;-81
2023/05/12 02:06:31;;;;;;;1.20;1.07;;;21.70;74.60;;;;;;5073502;28;20527;-81
2023/05/12 02:08:58;;;;;;;1.30;1.13;;;21.70;75.40;;;;;;5073408;28;21004;-81
2023/05/12 02:11:25;;;;;;;1.37;1.10;;;21.70;74.60;;;;;;5073154;28;20476;-81
2023/05/12 02:13:52;;;;;;;1.20;1.10;;;21.70;74.60;;;;;;5073418;28;20438;-82
2023/05/12 02:16:19;;;;;;;1.00;0.80;;;21.70;75.50;;;;;;5073292;28;20821;-82
2023/05/12 02:18:47;;;;;;;1.30;1.20;;;21.70;74.60;;;;;;5073221;28;20507;-81
2023/05/12 02:21:14;;;;;;;1.20;1.07;;;21.70;74.60;;;;;;5073392;28;20445;-81
2023/05/12 02:23:41;;;;;;;1.20;1.10;;;21.60;74.50;;;;;;5073495;28;20499;-82
2023/05/12 02:26:08;;;;;;;1.20;1.10;;;21.60;74.50;;;;;;5073473;28;20445;-82
2023/05/12 02:28:35;;;;;;;1.60;1.20;;;21.60;75.40;;;;;;5072169;28;20498;-82
2023/05/12 02:31:02;;;;;;;1.67;1.10;;;21.60;74.50;;;;;;5073096;28;20465;-82
2023/05/12 02:33:29;;;;;;;1.17;1.00;;;21.60;74.50;;;;;;5073422;28;20441;-81
2023/05/12 02:35:57;;;;;;;1.10;1.00;;;21.60;74.50;;;;;;5073310;28;20445;-82
2023/05/12 02:38:24;;;;;;;1.10;0.90;;;21.60;74.60;;;;;;5073007;28;20998;-81
2023/05/12 02:40:50;;;;;;;2.17;1.10;;;21.60;74.50;;;;;;5073015;28;20527;-82
2023/05/12 02:43:17;;;;;;;1.10;1.00;;;21.60;74.50;;;;;;5073133;28;20523;-82
2023/05/12 02:45:44;;;;;;;1.17;1.07;;;21.60;74.50;;;;;;5072989;28;20548;-82
2023/05/12 02:48:11;;;;;;;1.10;1.00;;;21.60;74.60;;;;;;5073019;28;20476;-82
2023/05/12 02:50:38;;;;;;;1.10;1.00;;;21.60;74.50;;;;;;5072927;28;20766;-82
2023/05/12 02:53:06;;;;;;;1.10;1.00;;;21.60;74.60;;;;;;5072952;28;20550;-82
2023/05/12 02:55:33;;;;;;;1.30;1.17;;;21.60;74.50;;;;;;5073436;28;20432;-82
2023/05/12 02:58:00;;;;;;;1.20;1.10;;;21.60;74.70;;;;;;5073093;28;20483;-82
2023/05/12 03:00:27;;;;;;;1.10;1.00;;;21.60;74.60;;;;;;5072953;28;20448;-82
2023/05/12 03:02:54;;;;;;;1.37;1.07;;;21.60;74.50;;;;;;5072739;28;20495;-82
2023/05/12 03:05:20;;;;;;;1.13;1.03;;;21.60;74.60;;;;;;5072874;28;20817;-82
2023/05/12 03:07:48;;;;;;;1.73;1.07;;;21.60;74.50;;;;;;5072803;28;20470;-82
2023/05/12 03:10:16;;;;;;;1.20;1.10;;;21.60;74.60;;;;;;5072719;28;20821;-81
2023/05/12 03:12:43;;;;;;;1.57;1.20;;;21.50;74.40;;;;;;5072874;28;20432;-81
2023/05/12 03:15:11;;;;;;;1.30;1.10;;;21.60;74.60;;;;;;5072591;28;20491;-82
2023/05/12 03:17:38;;;;;;;1.20;1.00;;;21.60;74.60;;;;;;5072616;28;20429;-81
2023/05/12 03:20:06;;;;;;;1.20;1.10;;;21.60;74.60;;;;;;5072601;28;20499;-82
2023/05/12 03:22:33;;;;;;;1.13;0.97;;;21.60;74.60;;;;;;5072704;28;20524;-82
2023/05/12 03:24:59;;;;;;;1.30;1.20;;;21.60;74.60;;;;;;5072872;28;20437;-81
2023/05/12 03:27:28;;;;;;;1.23;1.13;;;21.60;74.50;;;;;;5072850;28;20483;-82
2023/05/12 03:29:55;;;;;;;1.13;1.03;;;21.60;74.50;;;;;;5072663;28;20432;-81
2023/05/12 03:32:22;;;;;;;1.20;1.00;;;21.60;74.60;;;;;;5072839;28;20553;-81
2023/05/12 03:34:49;;;;;;;1.10;0.90;;;21.60;74.60;;;;;;5073143;28;20515;-82
2023/05/12 03:37:16;;;;;;;1.20;1.00;;;21.60;74.60;;;;;;5072690;28;20929;-82
2023/05/12 03:39:42;;;;;;;1.30;1.20;;;21.60;74.60;;;;;;5075116;28;20484;-81
2023/05/12 03:42:09;;;;;;;1.20;1.00;;;21.60;74.60;;;;;;5076232;28;20531;-81
2023/05/12 03:44:37;;;;;;;1.20;1.10;;;21.60;74.60;;;;;;5076249;28;20532;-81
2023/05/12 03:47:05;;;;;;;1.20;1.10;;;21.60;74.50;;;;;;5076298;28;20527;-82
2023/05/12 03:49:32;;;;;;;1.30;1.20;;;21.60;74.60;;;;;;5076079;28;20444;-83
2023/05/12 03:51:58;;;;;;;1.30;1.20;;;21.60;74.60;;;;;;5076047;28;20437;-82
2023/05/12 03:54:25;;;;;;;1.17;1.03;;;21.60;74.60;;;;;;5076029;28;20443;-82
2023/05/12 03:56:52;;;;;;;1.23;1.10;;;21.60;74.70;;;;;;5075927;28;20466;-82
2023/05/12 03:59:20;;;;;;;1.10;0.87;;;21.60;74.60;;;;;;5075940;28;20517;-82
2023/05/12 04:01:48;;;;;;;2.30;1.20;;;21.60;74.60;;;;;;5076063;28;20471;-82
2023/05/12 04:04:15;;;;;;;1.20;1.00;;;21.60;74.60;;;;;;5075894;28;20533;-89
2023/05/12 04:06:42;;;;;;;1.60;1.50;;;21.60;74.60;;;;;;5074568;28;20449;-87
2023/05/12 04:09:09;;;;;;;1.10;0.90;;;21.60;74.60;;;;;;5075520;28;20459;-82
2023/05/12 04:11:36;;;;;;;1.43;1.10;;;21.60;74.60;;;;;;5075746;28;20887;-82
2023/05/12 04:14:03;;;;;;;1.20;1.10;;;21.60;74.60;;;;;;5075648;28;20464;-82
2023/05/12 04:16:30;;;;;;;1.10;0.90;;;21.60;74.60;;;;;;5075638;28;20440;-82
2023/05/12 04:18:58;;;;;;;1.20;1.10;;;21.60;74.70;;;;;;5075497;28;20573;-88
2023/05/12 04:21:25;;;;;;;1.10;1.00;;;21.60;75.50;;;;;;5075481;28;20468;-82
2023/05/12 04:23:52;;;;;;;1.10;0.97;;;21.60;75.50;;;;;;5075490;28;20526;-82
2023/05/12 04:26:19;;;;;;;1.30;1.10;;;21.60;74.60;;;;;;5075601;28;20441;-82
2023/05/12 04:28:47;;;;;;;1.43;1.33;;;21.60;74.60;;;;;;5075362;28;20445;-82
2023/05/12 04:31:13;;;;;;;1.40;1.17;;;21.60;74.70;;;;;;5075306;28;20518;-82
2023/05/12 04:33:40;;;;;;;1.10;0.90;;;21.60;74.70;;;;;;5075421;28;20462;-82
2023/05/12 04:36:09;;;;;;;1.60;1.10;;;21.60;74.60;;;;;;5075293;28;20473;-82
2023/05/12 04:38:36;;;;;;;1.00;0.87;;;21.60;74.60;;;;;;5074945;28;20535;-82
2023/05/12 04:41:03;;;;;;;1.20;1.10;;;21.60;74.70;;;;;;5075257;28;20474;-82
2023/05/12 04:43:30;;;;;;;1.23;0.97;;;21.60;74.60;;;;;;5074896;28;20528;-81
2023/05/12 04:45:56;;;;;;;1.10;1.00;;;21.60;74.60;;;;;;5075294;28;20873;-81
2023/05/12 04:48:23;;;;;;;1.20;1.10;;;21.60;74.60;;;;;;5075197;28;20455;-82
2023/05/12 04:50:50;;;;;;;1.10;1.00;;;21.60;74.60;;;;;;5073980;28;20954;-82
2023/05/12 04:53:18;;;;;;;1.20;1.07;;;21.60;74.70;;;;;;5074973;28;20453;-81
2023/05/12 04:55:45;;;;;;;1.13;1.03;;;21.60;74.70;;;;;;5075244;28;20445;-82
2023/05/12 04:58:13;;;;;;;1.20;1.00;;;21.60;74.70;;;;;;5074963;28;20445;-82
2023/05/12 05:00:40;;;;;;;1.20;1.00;;;21.60;74.70;;;;;;5074664;28;20449;-82
2023/05/12 05:03:07;;;;;;;1.50;1.20;;;21.60;74.70;;;;;;5074747;28;20425;-82
2023/05/12 05:05:34;;;;;;;1.10;1.00;;;21.60;74.70;;;;;;5074833;28;20437;-82
2023/05/12 05:08:01;;;;;;;1.10;1.00;;;21.60;74.70;;;;;;5074462;28;20531;-82
2023/05/12 05:10:29;;;;;;;1.17;1.07;;;21.60;74.60;;;;;;5074385;28;20476;-82
2023/05/12 05:12:56;;;;;;;1.30;1.03;;;21.60;74.70;;;;;;5074516;28;20528;-82
2023/05/12 05:15:22;;;;;;;1.10;1.00;;;21.60;74.60;;;;;;5074400;28;20791;-82
2023/05/12 05:17:49;;;;;;;1.40;1.30;;;21.60;74.60;;;;;;5074684;28;20939;-82
2023/05/12 05:20:17;;;;;;;1.10;0.97;;;21.60;74.60;;;;;;5074189;28;20487;-82
2023/05/12 05:22:43;;;;;;;1.10;1.00;;;21.60;74.60;;;;;;5074361;28;20778;-81
2023/05/12 05:25:15;;;;;;;2.10;1.33;;;21.60;74.60;;;;;;5074360;28;21019;-81
2023/05/12 05:27:43;;;;;;;1.10;1.00;;;21.60;74.60;;;;;;5074339;28;20788;-83
2023/05/12 05:30:30;;;;;;;1.30;1.00;;;21.60;74.60;;;;;;5074928;28;20537;-83
2023/05/12 05:32:57;;;;;;;1.10;0.97;;;21.60;74.60;;;;;;5074325;28;20498;-82
2023/05/12 05:35:24;;;;;;;1.20;1.00;;;21.60;74.60;;;;;;5074032;28;20443;-81
2023/05/12 05:37:52;;;;;;;1.10;0.90;;;21.60;74.60;;;;;;5074160;28;20441;-82
2023/05/12 05:40:19;;;;;;;1.10;1.00;;;21.60;75.40;;;;;;5073971;28;20480;-82
2023/05/12 05:42:49;;;;;;;1.20;1.10;;;21.60;74.60;;;;;;5073979;28;20447;-83
2023/05/12 05:45:16;;;;;;;1.20;1.10;;;21.60;74.70;;;;;;5074033;28;20441;-83
2023/05/12 05:47:43;;;;;;;1.20;1.07;;;21.60;74.60;;;;;;5074258;28;20479;-82
2023/05/12 05:50:11;;;;;;;1.10;1.00;;;21.60;74.60;;;;;;5073936;28;20444;-83
2023/05/12 05:52:38;;;;;;;1.27;1.10;;;21.60;74.60;;;;;;5073740;28;20983;-83
2023/05/12 05:55:06;;;;;;;1.13;1.03;;;21.60;74.60;;;;;;5073828;28;20445;-83
2023/05/12 05:57:33;;;;;;;1.10;1.00;;;21.60;74.60;;;;;;5073746;28;20895;-83
2023/05/12 06:00:02;;;;;;;1.13;1.00;;;21.60;74.50;;;;;;5073523;28;20579;-83
2023/05/12 06:02:30;;;;;;;1.20;1.10;;;21.60;74.50;;;;;;5073670;28;20461;-83
2023/05/12 06:04:58;;;;;;;1.13;1.03;;;21.60;74.50;;;;;;5073533;28;20444;-83
2023/05/12 06:07:25;;;;;;;1.20;1.10;;;21.60;74.50;;;;;;5073619;28;20445;-83
2023/05/12 06:09:53;;;;;;;1.33;0.90;;;21.60;74.50;;;;;;5073340;28;20476;-83
2023/05/12 06:12:20;;;;;;;1.10;0.90;;;21.60;74.50;;;;;;5073562;28;20444;-83
2023/05/12 06:14:47;;;;;;;1.10;0.90;;;21.60;74.40;;;;;;5073414;28;20791;-83
2023/05/12 06:17:15;;;;;;;1.20;1.10;;;21.60;74.40;;;;;;5073412;28;20529;-83
2023/05/12 06:19:42;;;;;;;1.10;0.90;;;21.60;74.40;;;;;;5073297;28;20486;-83
2023/05/12 06:22:09;;;;;;;1.20;1.10;;;21.60;74.40;;;;;;5073226;28;20444;-83
2023/05/12 06:24:36;;;;;;;1.20;1.10;;;21.60;74.30;;;;;;5073343;28;20443;-83
2023/05/12 06:27:03;;;;;;;1.10;0.90;;;21.60;74.30;;;;;;5073314;28;20808;-83
2023/05/12 06:29:30;;;;;;;1.20;1.10;;;21.70;74.50;;;;;;5073033;28;20524;-83
2023/05/12 06:31:57;;;;;;;1.10;1.00;;;21.70;74.50;;;;;;5073273;28;20467;-83
2023/05/12 06:34:25;;;;;;;1.40;1.30;;;21.70;74.50;;;;;;5073305;28;20532;-83
2023/05/12 06:36:52;;;;;;;1.20;1.10;;;21.70;74.50;;;;;;5073141;28;20536;-83
2023/05/12 06:39:18;;;;;;;1.10;1.00;;;21.60;74.40;;;;;;5072967;28;20519;-83
2023/05/12 06:41:45;;;;;;;1.23;1.13;;;21.70;74.50;;;;;;5073030;28;20535;-83
2023/05/12 06:44:12;;;;;;;1.10;1.00;;;21.70;74.50;;;;;;5073308;28;20994;-83
2023/05/12 06:46:40;;;;;;;1.10;1.00;;;21.70;74.50;;;;;;5073043;28;20543;-83
2023/05/12 06:49:07;;;;;;;1.10;1.00;;;21.70;74.50;;;;;;5073165;28;20582;-83
2023/05/12 06:51:35;;;;;;;1.30;1.20;;;21.70;74.50;;;;;;5073149;28;20983;-83
2023/05/12 06:54:02;;;;;;;1.10;1.00;;;21.70;74.60;;;;;;5073046;28;20453;-89
2023/05/12 06:56:30;;;;;;;1.10;0.90;;;21.70;74.60;;;;;;5072989;28;20545;-83
2023/05/12 06:58:59;;;;;;;1.10;1.00;;;21.70;74.60;;;;;;5072777;28;20531;-83
2023/05/12 07:01:26;;;;;;;2.27;0.93;;;21.60;74.50;;;;;;5072791;28;20870;-82
2023/05/12 07:03:53;;;;;;;1.20;0.97;;;21.70;74.70;;;;;;5072948;28;20455;-83
2023/05/12 07:06:20;;;;;;;1.13;1.00;;;21.60;74.50;;;;;;5072744;28;20442;-84
2023/05/12 07:08:49;;;;;;;1.10;0.90;;;21.60;74.60;;;;;;5072699;28;20544;-83
2023/05/12 07:11:18;;;;;;;1.20;0.80;;;21.60;74.60;;;;;;5072708;28;20476;-83
2023/05/12 07:13:45;;;;;;;1.10;0.90;;;21.60;74.60;;;;;;5074085;28;20448;-83
2023/05/12 07:16:12;;;;;;;1.60;1.10;;;21.60;74.70;;;;;;5076711;28;20446;-83
2023/05/12 07:18:39;;;;;;;1.00;0.83;;;21.60;74.60;;;;;;5076771;28;20444;-86
2023/05/12 07:21:06;;;;;;;1.10;1.00;;;21.60;74.60;;;;;;5076573;28;20579;-83
2023/05/12 07:23:33;;;;;;;1.23;1.10;;;21.60;74.60;;;;;;5076662;28;20432;-83
2023/05/12 07:26:02;;;;;;;1.20;1.10;;;21.60;74.60;;;;;;5076631;28;20440;-83
2023/05/12 07:28:31;;;;;;;1.17;1.07;;;21.60;74.70;;;;;;5076527;28;20448;-83
2023/05/12 07:30:58;;;;;;;1.10;0.87;;;21.60;74.60;;;;;;5076256;28;20468;-83
2023/05/12 07:33:25;;;;;;;1.03;0.90;;;21.60;74.60;;;;;;5076615;28;20441;-83
2023/05/12 07:35:51;;;;;;;1.20;1.00;;;21.60;74.60;;;;;;5076423;28;20433;-84
2023/05/12 07:38:18;;;;;;;1.10;1.00;;;21.70;74.70;;;;;;5076315;28;20446;-83
2023/05/12 07:40:45;;;;;;;1.10;1.00;;;21.70;74.80;;;;;;5076124;28;20538;-83
2023/05/12 07:43:13;;;;;;;1.20;1.00;;;21.60;74.70;;;;;;5076279;28;20591;-83
2023/05/12 07:45:40;;;;;;;1.10;0.90;;;21.60;74.70;;;;;;5076281;28;20441;-83
2023/05/12 07:48:07;;;;;;;1.17;0.93;;;21.60;74.70;;;;;;5075956;28;20528;-83
2023/05/12 07:50:34;;;;;;;1.10;0.87;;;21.60;74.70;;;;;;5076201;28;20444;-83
2023/05/12 07:53:01;;;;;;;1.20;1.10;;;21.60;74.60;;;;;;5076043;28;20440;-83
2023/05/12 07:55:27;;;;;;;1.10;0.93;;;21.60;74.60;;;;;;5076189;28;20449;-83
2023/05/12 07:57:54;;;;;;;1.30;1.17;;;21.60;74.70;;;;;;5075941;28;20438;-83
2023/05/12 08:00:23;;;;;;;1.10;0.97;;;21.60;74.70;;;;;;5075918;28;21081;-83
2023/05/12 08:02:50;;;;;;;1.13;1.00;;;21.60;74.70;;;;;;5075812;28;20437;-83
2023/05/12 08:05:16;;;;;;;1.17;0.97;;;21.60;74.70;;;;;;5075887;28;20477;-83
2023/05/12 08:07:43;;;;;;;1.20;1.10;;;21.60;74.60;;;;;;5075720;28;20441;-83
2023/05/12 08:10:11;;;;;;;1.10;1.00;;;21.60;74.70;;;;;;5075616;28;20555;-82
2023/05/12 08:12:39;;;;;;;1.20;0.93;;;21.60;74.70;;;;;;5075791;28;20440;-83
2023/05/12 08:15:06;;;;;;;1.10;0.90;;;21.60;74.60;;;;;;5075603;28;20962;-81
2023/05/12 08:17:35;;;;;;;1.10;1.00;;;21.60;74.60;;;;;;5075844;28;20807;-82
2023/05/12 08:20:03;;;;;;;1.03;0.90;;;21.70;74.70;;;;;;5075447;28;20472;-82
2023/05/12 08:22:30;;;;;;;1.10;0.93;;;21.70;74.70;;;;;;5075656;28;20445;-82
2023/05/12 08:24:57;;;;;;;1.53;1.20;;;21.70;74.70;;;;;;5074171;28;20443;-82
2023/05/12 08:27:23;;;;;;;1.23;1.13;;;21.70;74.70;;;;;;5075491;28;20541;-82
2023/05/12 08:29:50;;;;;;;1.10;1.00;;;21.70;74.70;;;;;;5075154;28;20492;-82
2023/05/12 08:32:17;;;;;;;1.10;0.97;;;21.70;75.50;;;;;;5075114;28;20814;-82
2023/05/12 08:34:45;;;;;;;1.20;1.10;;;21.70;74.60;;;;;;5075345;28;20449;-82
2023/05/12 08:37:12;;;;;;;2.27;1.10;;;21.70;74.60;;;;;;5075397;28;20446;-82
2023/05/12 08:39:39;;;;;;;1.07;0.97;;;21.70;74.50;;;;;;5075070;28;20485;-82
2023/05/12 08:42:16;;;;;;;1.10;1.00;;;21.70;74.50;;;;;;5075341;28;20469;-82
2023/05/12 08:44:43;;;;;;;1.10;1.00;;;21.70;75.40;;;;;;5075273;28;20548;-82
2023/05/12 08:47:12;;;;;;;1.10;0.97;;;21.70;74.50;;;;;;5075092;28;20936;-82
2023/05/12 08:49:40;;;;;;;1.00;0.83;;;21.70;74.40;;;;;;5074861;28;20539;-88
2023/05/12 08:52:09;;;;;;;1.10;0.90;;;21.70;74.40;;;;;;5075017;28;20447;-82
2023/05/12 08:54:36;;;;;;;1.10;0.93;;;21.70;74.40;;;;;;5074921;28;20515;-82
2023/05/12 08:57:05;;;;;;;1.20;0.90;;;21.70;75.20;;;;;;5074814;28;20918;-82
2023/05/12 08:59:33;;;;;;;1.23;1.13;;;21.70;74.30;;;;;;5074682;28;20447;-82
2023/05/12 09:02:03;;;;;;;1.30;1.10;;;21.70;74.30;;;;;;5074635;28;20459;-82
2023/05/12 09:04:29;;;;;;;1.13;1.03;;;21.70;74.40;;;;;;5074833;28;20448;-83
2023/05/12 09:06:57;;;;;;;1.20;1.00;;;21.70;74.40;;;;;;5074865;28;20437;-82
2023/05/12 09:09:27;;;;;;;1.00;0.80;;;21.80;74.50;;;;;;5074482;28;20437;-82
2023/05/12 09:11:57;;;;;;;1.10;1.00;;;21.80;74.50;;;;;;5074663;28;20498;-82
2023/05/12 09:14:25;;;;;;;1.10;0.90;;;21.80;74.50;;;;;;5074574;28;20496;-82
2023/05/12 09:16:56;;;;;;;1.30;1.00;;;21.80;74.50;;;;;;5074682;28;20540;-82
2023/05/12 09:19:23;;;;;;;1.10;0.90;;;21.80;74.40;;;;;;5074464;28;20429;-82
2023/05/12 09:21:50;;;;;;;1.10;0.90;;;21.80;74.30;;;;;;5074320;28;20480;-82
2023/05/12 09:24:17;;;;;;;1.07;0.90;;;21.80;74.30;;;;;;5074340;28;20439;-82
2023/05/12 09:26:50;;;;;;;1.10;1.00;;;21.80;74.30;;;;;;5074454;28;20798;-82
2023/05/12 09:29:17;;;;;;;1.30;1.00;;;21.80;74.30;;;;;;5074327;28;20531;-82
2023/05/12 09:31:50;;;;;;;1.17;1.00;;;21.80;74.30;;;;;;5074322;28;20471;-82
2023/05/12 09:34:17;;;;;;;1.20;1.03;;;21.80;74.40;;;;;;5074283;28;20451;-83
2023/05/12 09:36:45;;;;;;;1.20;1.00;;;21.80;74.30;;;;;;5073746;28;20428;-82
2023/05/12 09:39:12;;;;;;;1.10;1.00;;;21.80;74.30;;;;;;5074070;28;20459;-83
2023/05/12 09:41:40;;;;;;;1.07;0.90;;;21.80;74.30;;;;;;5073782;28;20494;-83
2023/05/12 09:44:10;;;;;;;1.10;1.00;;;21.80;74.40;;;;;;5073935;28;20536;-82
2023/05/12 09:46:38;;;;;;;1.23;1.10;;;21.80;74.30;;;;;;5073992;28;20444;-82
2023/05/12 09:49:05;;;;;;;1.00;0.80;;;21.80;74.30;;;;;;5073812;28;20451;-83
2023/05/12 09:51:32;;;;;;;1.17;0.90;;;21.80;74.30;;;;;;5073739;28;20446;-83
2023/05/12 09:53:59;;;;;;;1.10;0.90;;;21.80;74.30;;;;;;5073806;28;20808;-82
2023/05/12 09:56:30;;;;;;;1.10;0.90;;;21.80;74.30;;;;;;5073751;28;20946;-83
2023/05/12 09:58:57;;;;;;;1.13;1.03;;;21.80;74.30;;;;;;5073729;28;20452;-89
2023/05/12 10:01:27;;;;;;;1.10;1.00;;;21.80;74.30;;;;;;5073477;28;20494;-83
2023/05/12 10:03:56;;;;;;;1.10;1.00;;;21.80;74.20;;;;;;5073541;28;20448;-83
2023/05/12 10:06:27;;;;;;;1.20;1.00;;;21.80;74.20;;;;;;5073821;28;20985;-82
2023/05/12 10:09:00;;;;;;;1.23;1.13;;;21.80;74.30;;;;;;5073421;28;20448;-82
2023/05/12 10:11:29;;;;;;;1.10;0.83;;;21.90;74.40;;;;;;5073588;28;20887;-83
2023/05/12 10:13:56;;;;;;;1.00;0.80;;;21.80;74.30;;;;;;5073397;28;20873;-82
2023/05/12 10:16:26;;;;;;;1.20;0.90;;;21.80;74.20;;;;;;5073578;28;20449;-82
2023/05/12 10:18:55;;;;;;;1.20;1.10;;;21.80;74.20;;;;;;5073384;28;20955;-82
2023/05/12 10:21:22;;;;;;;1.07;0.87;;;21.90;74.30;;;;;;5073202;28;20557;-83
2023/05/12 10:23:50;;;;;;;1.10;1.00;;;21.90;74.30;;;;;;5073328;28;20446;-82
2023/05/12 10:26:18;;;;;;;1.10;0.90;;;21.90;75.10;;;;;;5073318;28;20433;-82
2023/05/12 10:28:46;;;;;;;1.10;1.00;;;21.90;74.30;;;;;;5073097;28;20440;-82
2023/05/12 10:31:14;;;;;;;1.10;1.00;;;21.90;74.30;;;;;;5073066;28;20465;-82
2023/05/12 10:33:42;;;;;;;1.20;1.10;;;21.90;74.30;;;;;;5073186;28;20450;-82
2023/05/12 10:36:17;;;;;;;1.20;0.90;;;21.90;74.30;;;;;;5073093;28;20534;-82
2023/05/12 10:38:48;;;;;;;1.10;0.93;;;21.90;74.30;;;;;;5073050;28;20443;-83
2023/05/12 10:41:15;;;;;;;1.20;1.10;;;21.90;74.30;;;;;;5072984;28;21075;-82
2023/05/12 10:43:45;;;;;;;1.00;0.80;;;21.90;74.30;;;;;;5072964;28;20430;-82
2023/05/12 10:46:17;;;;;;;1.00;0.80;;;21.90;74.40;;;;;;5073066;28;20441;-87
2023/05/12 10:48:54;;;;;;;1.13;1.03;;;21.90;74.30;;;;;;5072146;28;20790;-82
2023/05/12 10:51:22;;;;;;;1.00;0.90;;;21.90;74.30;;;;;;5073109;28;20441;-82
2023/05/12 10:53:56;;;;;;;1.10;0.90;;;21.90;74.30;;;;;;5072949;28;20440;-82
2023/05/12 10:56:25;;;;;;;1.20;0.87;;;21.90;74.40;;;;;;5073058;28;20939;-82
2023/05/12 10:59:12;;;;;;;1.07;0.90;;;21.90;74.30;;;;;;5072844;28;20436;-82
2023/05/12 11:01:40;;;;;;;1.20;1.10;;;21.90;74.40;;;;;;5072715;28;20485;-82
2023/05/12 11:04:12;;;;;;;1.37;1.27;;;21.90;74.40;;;;;;5072951;28;20518;-82
2023/05/12 11:06:40;;;;;;;1.13;1.00;;;21.90;74.40;;;;;;5072883;28;20798;-82
2023/05/12 11:09:07;;;;;;;1.10;0.90;;;21.90;74.40;;;;;;5072870;28;20441;-88
2023/05/12 11:11:34;;;;;;;1.10;0.93;;;21.90;74.40;;;;;;5072713;28;20468;-87
2023/05/12 11:14:02;;;;;;;1.00;0.90;;;21.90;74.40;;;;;;5072683;28;20805;-82
2023/05/12 11:16:29;;;;;;;1.10;1.00;;;21.90;74.40;;;;;;5072881;28;20442;-82
2023/05/12 11:19:05;;;;;;;1.17;1.03;;;21.90;74.40;;;;;;5072640;28;20529;-82
2023/05/12 11:21:33;;;;;;;1.10;1.00;;;21.90;74.40;;;;;;5072577;28;20837;-86
2023/05/12 11:24:01;;;;;;;1.40;1.10;;;21.90;74.40;;;;;;5072942;28;20439;-82
2023/05/12 11:26:28;;;;;;;1.20;1.10;;;21.90;74.40;;;;;;5072807;28;20432;-82
2023/05/12 11:28:57;;;;;;;1.20;1.10;;;21.90;74.40;;;;;;5072394;28;20439;-81
2023/05/12 11:31:24;;;;;;;1.13;1.00;;;21.90;74.40;;;;;;5072532;28;20460;-81
2023/05/12 11:34:01;;;;;;;1.20;1.03;;;21.90;74.40;;;;;;5072602;28;20946;-81
2023/05/12 11:36:28;;;;;;;1.10;0.90;;;21.90;74.40;;;;;;5072501;28;20447;-86
2023/05/12 11:38:57;;;;;;;1.10;0.90;;;21.90;74.40;;;;;;5072526;28;20443;-81
2023/05/12 11:41:25;;;;;;;1.10;1.00;;;21.90;74.40;;;;;;5072425;28;20494;-81
2023/05/12 11:43:52;;;;;;;3.00;1.00;;;21.90;74.40;;;;;;5072501;28;20445;-82
2023/05/12 11:46:26;;;;;;;1.10;0.90;;;22.00;74.50;;;;;;5072578;28;20527;-82
2023/05/12 11:48:56;;;;;;;1.10;0.90;;;22.00;74.50;;;;;;5072367;28;20439;-82
2023/05/12 11:51:24;;;;;;;1.40;1.10;;;21.90;74.40;;;;;;5072683;28;20448;-82
2023/05/12 11:53:51;;;;;;;1.10;0.90;;;21.90;74.40;;;;;;5072411;28;20843;-82
2023/05/12 11:56:20;;;;;;;1.10;0.90;;;21.90;74.50;;;;;;5072471;28;20482;-86
2023/05/12 11:58:55;;;;;;;1.20;1.10;;;22.00;74.60;;;;;;5072293;28;20448;-82
2023/05/12 12:01:22;;;;;;;1.20;1.10;;;22.00;74.60;;;;;;5075753;28;20495;-83
2023/05/12 12:03:51;;;;;;;1.20;0.90;;;21.90;74.50;;;;;;5075882;28;20798;-82
2023/05/12 12:06:21;;;;;;;2.33;1.10;;;21.90;74.50;;;;;;5075939;28;20917;-82
2023/05/12 12:08:52;;;;;;;1.30;1.00;;;22.00;74.60;;;;;;5075593;28;20452;-82
2023/05/12 12:11:21;;;;;;;1.10;1.00;;;22.00;74.50;;;;;;5075525;28;20567;-82
2023/05/12 12:13:51;;;;;;;1.00;0.83;;;21.90;74.50;;;;;;5075789;28;20849;-82
2023/05/12 12:16:18;;;;;;;1.20;0.90;;;22.00;74.60;;;;;;5075704;28;20441;-82
2023/05/12 12:18:45;;;;;;;1.27;1.17;;;22.00;74.60;;;;;;5075709;28;20448;-83
2023/05/12 12:21:11;;;;;;;1.30;1.20;;;21.90;74.50;;;;;;5075417;28;20482;-82
2023/05/12 12:23:38;;;;;;;1.17;1.00;;;21.90;74.50;;;;;;5075639;28;20777;-82
2023/05/12 12:26:05;;;;;;;1.00;0.80;;;22.00;74.60;;;;;;5075552;28;20524;-82
2023/05/12 12:28:34;;;;;;;1.20;1.10;;;22.00;74.60;;;;;;5075413;28;20445;-82
2023/05/12 12:31:01;;;;;;;1.20;1.03;;;22.00;74.60;;;;;;5075438;28;20500;-83
2023/05/12 12:33:28;;;;;;;1.13;0.97;;;22.00;74.70;;;;;;5075305;28;20447;-82
2023/05/12 12:35:54;;;;;;;1.10;0.90;;;22.00;74.60;;;;;;5075418;28;20950;-82
2023/05/12 12:38:21;;;;;;;1.37;1.27;;;22.00;74.60;;;;;;5075156;28;20477;-82
2023/05/12 12:40:48;;;;;;;1.10;0.90;;;22.00;74.60;;;;;;5075426;28;20857;-82
2023/05/12 12:43:15;;;;;;;1.20;1.10;;;22.00;74.50;;;;;;5075153;28;20545;-82
2023/05/12 12:45:43;;;;;;;1.20;1.10;;;22.00;74.60;;;;;;5075107;28;20873;-82
2023/05/12 12:48:10;;;;;;;1.50;1.00;;;22.00;74.60;;;;;;5074962;28;20454;-82
2023/05/12 12:50:37;;;;;;;1.10;0.87;;;22.00;74.60;;;;;;5074944;28;20495;-83